createdAt,value
2019-01-30T00:03:04.414Z,-0.01
2019-01-30T00:06:09.005Z,-0.05
2019-01-30T00:09:13.732Z,-0.09
2019-01-30T00:12:18.539Z,-0.11
2019-01-30T00:15:23.306Z,-0.11
2019-01-30T00:18:27.873Z,-0.12
2019-01-30T00:21:33.678Z,-0.18
2019-01-30T00:24:38.252Z,-0.21
2019-01-30T00:27:42.536Z,-0.10
2019-01-30T00:30:47.143Z,-0.16
2019-01-30T00:33:54.200Z,-0.15
2019-01-30T00:36:58.551Z,-0.17
2019-01-30T00:40:02.849Z,-0.16
2019-01-30T00:43:07.746Z,-0.17
2019-01-30T00:46:14.179Z,-0.22
2019-01-30T00:49:18.477Z,-0.18
2019-01-30T00:52:22.764Z,-0.23
2019-01-30T00:55:27.031Z,-0.22
2019-01-30T00:58:31.318Z,-0.26
2019-01-30T01:01:36.269Z,-0.28
2019-01-30T01:04:40.550Z,-0.21
2019-01-30T01:07:45.173Z,-0.32
2019-01-30T01:10:49.481Z,-0.33
2019-01-30T01:13:53.865Z,-0.29
2019-01-30T01:16:58.133Z,-0.34
2019-01-30T01:20:02.588Z,-0.29
2019-01-30T01:23:10.892Z,-0.31
2019-01-30T01:26:15.182Z,-0.18
2019-01-30T01:29:19.452Z,-0.31
2019-01-30T01:32:23.749Z,-0.35
2019-01-30T01:35:28.114Z,-0.34
2019-01-30T01:38:32.394Z,-0.35
2019-01-30T01:41:36.695Z,-0.38
2019-01-30T01:44:41.084Z,-0.39
2019-01-30T01:47:45.490Z,-0.38
2019-01-30T01:50:49.775Z,-0.41
2019-01-30T01:53:54.058Z,-0.42
2019-01-30T01:56:58.332Z,-0.35
2019-01-30T02:00:02.631Z,-0.41
2019-01-30T02:03:07.017Z,-0.37
2019-01-30T02:06:14.383Z,-0.36
2019-01-30T02:09:18.664Z,-0.42
2019-01-30T02:12:22.962Z,-0.39
2019-01-30T02:15:27.348Z,-0.42
2019-01-30T02:18:31.643Z,-0.39
2019-01-30T02:21:35.964Z,-0.26
2019-01-30T02:24:40.239Z,-0.26
2019-01-30T02:27:44.630Z,-0.27
2019-01-30T02:30:48.927Z,-0.29
2019-01-30T02:33:54.992Z,-0.24
2019-01-30T02:36:59.567Z,-0.28
2019-01-30T02:40:04.499Z,-0.29
2019-01-30T02:43:08.767Z,-0.26
2019-01-30T02:46:13.046Z,-0.26
2019-01-30T02:49:17.457Z,-0.28
2019-01-30T02:52:21.818Z,-0.28
2019-01-30T02:55:26.100Z,-0.31
2019-01-30T02:58:30.379Z,-0.33
2019-01-30T03:01:42.117Z,-0.25
2019-01-30T03:04:46.401Z,-0.22
2019-01-30T03:07:50.710Z,-0.27
2019-01-30T03:10:54.998Z,-0.26
2019-01-30T03:13:59.265Z,-0.29
2019-01-30T03:17:03.585Z,-0.31
2019-01-30T03:20:10.489Z,-0.28
2019-01-30T03:23:14.783Z,-0.25
2019-01-30T03:26:19.061Z,-0.28
2019-01-30T03:29:26.399Z,-0.28
2019-01-30T03:32:30.749Z,-0.29
2019-01-30T03:35:35.033Z,-0.24
2019-01-30T03:38:39.323Z,-0.21
2019-01-30T03:41:43.602Z,-0.09
2019-01-30T03:44:47.883Z,-0.07
2019-01-30T03:47:52.397Z,-0.14
2019-01-30T03:50:56.646Z,-0.19
2019-01-30T03:54:01.567Z,-0.11
2019-01-30T03:57:05.849Z,-0.17
2019-01-30T04:00:13.655Z,-0.18
2019-01-30T04:03:17.956Z,-0.27
2019-01-30T04:06:22.339Z,-0.28
2019-01-30T04:09:26.645Z,-0.23
2019-01-30T04:12:30.935Z,-0.25
2019-01-30T04:15:35.305Z,-0.27
2019-01-30T04:18:39.608Z,-0.25
2019-01-30T04:21:43.895Z,-0.23
2019-01-30T04:24:48.729Z,-0.19
2019-01-30T04:27:53.027Z,-0.14
2019-01-30T04:30:57.302Z,-0.21
2019-01-30T04:34:01.890Z,-0.17
2019-01-30T04:37:06.169Z,-0.19
2019-01-30T04:40:12.996Z,-0.19
2019-01-30T04:43:18.407Z,-0.18
2019-01-30T04:46:22.638Z,-0.17
2019-01-30T04:49:26.946Z,-0.19
2019-01-30T04:52:31.249Z,-0.17
2019-01-30T04:55:35.570Z,-0.19
2019-01-30T04:58:39.886Z,-0.16
2019-01-30T05:01:49.676Z,-0.13
2019-01-30T05:04:54.053Z,-0.14
2019-01-30T05:07:58.374Z,-0.14
2019-01-30T05:11:02.755Z,-0.13
2019-01-30T05:14:07.058Z,-0.15
2019-01-30T05:17:11.349Z,-0.17
2019-01-30T05:20:16.948Z,-0.15
2019-01-30T05:23:22.341Z,-0.18
2019-01-30T05:26:26.702Z,-0.17
2019-01-30T05:29:30.977Z,-0.14
2019-01-30T05:32:35.864Z,-0.15
2019-01-30T05:35:42.489Z,-0.25
2019-01-30T05:38:46.870Z,-0.24
2019-01-30T05:41:51.180Z,-0.21
2019-01-30T05:44:55.492Z,-0.22
2019-01-30T05:47:59.793Z,-0.25
2019-01-30T05:51:04.190Z,-0.28
2019-01-30T05:54:08.611Z,-0.28
2019-01-30T05:57:12.894Z,-0.33
2019-01-30T06:00:31.384Z,-0.36
2019-01-30T06:03:35.659Z,-0.38
2019-01-30T06:06:42.666Z,-0.37
2019-01-30T06:09:47.241Z,-0.33
2019-01-30T06:12:51.539Z,-0.34
2019-01-30T06:15:55.832Z,-0.31
2019-01-30T06:19:00.355Z,-0.37
2019-01-30T06:22:04.739Z,-0.36
2019-01-30T06:25:09.807Z,-0.37
2019-01-30T06:28:14.264Z,-0.36
2019-01-30T06:31:18.641Z,-0.33
2019-01-30T06:34:22.957Z,-0.33
2019-01-30T06:37:27.241Z,-0.38
2019-01-30T06:40:33.593Z,-0.41
2019-01-30T06:43:37.981Z,-0.42
2019-01-30T06:46:42.271Z,-0.41
2019-01-30T06:49:46.567Z,-0.38
2019-01-30T06:52:52.661Z,-0.40
2019-01-30T06:55:56.929Z,-0.42
2019-01-30T06:59:07.073Z,-0.44
2019-01-30T07:02:14.667Z,-0.41
2019-01-30T07:05:20.228Z,-0.41
2019-01-30T07:08:24.647Z,-0.40
2019-01-30T07:11:28.933Z,-0.40
2019-01-30T07:14:33.235Z,-0.39
2019-01-30T07:17:37.522Z,-0.38
2019-01-30T07:20:41.924Z,-0.37
2019-01-30T07:23:46.224Z,-0.40
2019-01-30T07:26:50.509Z,-0.36
2019-01-30T07:29:54.907Z,-0.33
2019-01-30T07:32:59.190Z,-0.36
2019-01-30T07:36:03.576Z,-0.34
2019-01-30T07:39:12.705Z,-0.35
2019-01-30T07:42:17.105Z,-0.33
2019-01-30T07:45:23.383Z,-0.28
2019-01-30T07:48:29.080Z,-0.24
2019-01-30T07:51:35.252Z,-0.20
2019-01-30T07:54:40.742Z,-0.13
2019-01-30T07:57:45.620Z,-0.12
2019-01-30T08:00:49.896Z,-0.02
2019-01-30T08:03:54.202Z,-0.07
2019-01-30T08:06:58.597Z,-0.02
2019-01-30T08:10:02.872Z,0.03
2019-01-30T08:13:07.360Z,0.02
2019-01-30T08:16:11.636Z,0.15
2019-01-30T08:19:15.926Z,0.18
2019-01-30T08:22:22.641Z,0.25
2019-01-30T08:25:27.718Z,0.30
2019-01-30T08:28:32.150Z,0.41
2019-01-30T08:31:36.786Z,0.44
2019-01-30T08:34:43.968Z,0.46
2019-01-30T08:37:48.529Z,0.56
2019-01-30T08:40:52.778Z,0.63
2019-01-30T08:43:58.029Z,0.63
2019-01-30T08:47:02.425Z,0.73
2019-01-30T08:50:08.113Z,0.82
2019-01-30T08:53:12.403Z,0.86
2019-01-30T08:56:16.786Z,0.99
2019-01-30T08:59:21.075Z,0.99
2019-01-30T09:02:25.350Z,1.05
2019-01-30T09:05:29.869Z,1.06
2019-01-30T09:08:34.312Z,1.12
2019-01-30T09:11:39.683Z,1.15
2019-01-30T09:14:44.105Z,1.16
2019-01-30T09:17:51.698Z,1.27
2019-01-30T09:20:55.981Z,1.29
2019-01-30T09:24:00.298Z,1.29
2019-01-30T09:27:04.661Z,1.31
2019-01-30T09:30:14.000Z,1.40
2019-01-30T09:33:25.674Z,1.37
2019-01-30T09:36:24.254Z,1.44
2019-01-30T09:39:28.697Z,1.59
2019-01-30T09:42:33.022Z,1.57
2019-01-30T09:45:37.321Z,1.68
2019-01-30T09:48:41.617Z,1.74
2019-01-30T09:51:45.950Z,1.73
2019-01-30T09:54:50.330Z,1.75
2019-01-30T09:57:54.799Z,1.79
2019-01-30T10:00:59.205Z,1.80
2019-01-30T10:04:05.759Z,1.95
2019-01-30T10:07:10.118Z,1.93
2019-01-30T10:10:17.863Z,1.99
2019-01-30T10:13:22.161Z,1.98
2019-01-30T10:16:26.452Z,2.06
2019-01-30T10:19:30.825Z,2.07
2019-01-30T10:22:35.202Z,2.14
2019-01-30T10:25:39.569Z,2.23
2019-01-30T10:28:43.863Z,2.27
2019-01-30T10:31:48.249Z,2.32
2019-01-30T10:34:52.544Z,2.31
2019-01-30T10:37:57.043Z,2.40
2019-01-30T10:41:01.383Z,2.42
2019-01-30T10:44:06.191Z,2.55
2019-01-30T10:47:10.469Z,2.65
2019-01-30T10:50:17.150Z,2.57
2019-01-30T10:53:21.443Z,2.66
2019-01-30T10:56:25.777Z,2.73
2019-01-30T10:59:30.170Z,2.68
2019-01-30T11:02:34.465Z,2.74
2019-01-30T11:05:38.939Z,2.74
2019-01-30T11:08:43.215Z,2.76
2019-01-30T11:11:47.484Z,2.72
2019-01-30T11:14:51.755Z,2.69
2019-01-30T11:17:56.313Z,2.78
2019-01-30T11:21:00.592Z,2.82
2019-01-30T11:24:04.965Z,2.80
2019-01-30T11:27:09.266Z,2.88
2019-01-30T11:30:16.715Z,2.84
2019-01-30T11:33:21.092Z,2.99
2019-01-30T11:36:25.372Z,2.96
2019-01-30T11:39:32.776Z,2.90
2019-01-30T11:42:37.114Z,2.93
2019-01-30T11:45:43.308Z,3.00
2019-01-30T11:48:56.175Z,3.09
2019-01-30T11:51:53.652Z,2.80
2019-01-30T11:54:57.930Z,2.87
2019-01-30T11:58:02.301Z,3.02
2019-01-30T12:01:06.668Z,3.11
2019-01-30T12:04:17.685Z,3.17
2019-01-30T12:07:17.032Z,3.19
2019-01-30T12:10:21.312Z,3.21
2019-01-30T12:13:25.872Z,3.10
2019-01-30T12:16:30.157Z,3.19
2019-01-30T12:19:37.995Z,3.12
2019-01-30T12:22:42.378Z,3.28
2019-01-30T12:25:46.687Z,3.17
2019-01-30T12:28:50.955Z,3.19
2019-01-30T12:31:55.216Z,3.06
2019-01-30T12:34:59.492Z,2.99
2019-01-30T12:38:03.779Z,3.22
2019-01-30T12:41:12.414Z,3.13
2019-01-30T12:44:18.420Z,3.12
2019-01-30T12:47:22.737Z,3.10
2019-01-30T12:50:27.235Z,3.13
2019-01-30T12:53:31.673Z,3.29
2019-01-30T12:56:35.961Z,3.24
2019-01-30T12:59:40.381Z,3.18
2019-01-30T13:02:48.228Z,3.26
2019-01-30T13:05:52.541Z,3.47
2019-01-30T13:08:56.829Z,3.42
2019-01-30T13:12:01.126Z,3.31
2019-01-30T13:15:07.133Z,3.43
2019-01-30T13:18:18.081Z,3.47
2019-01-30T13:21:17.510Z,3.41
2019-01-30T13:24:21.799Z,3.42
2019-01-30T13:27:26.201Z,3.49
2019-01-30T13:30:33.249Z,3.63
2019-01-30T13:33:37.596Z,3.82
2019-01-30T13:36:41.881Z,3.94
2019-01-30T13:39:46.810Z,3.92
2019-01-30T13:42:51.118Z,3.70
2019-01-30T13:46:04.983Z,3.82
2019-01-30T13:49:01.497Z,3.73
2019-01-30T13:52:05.892Z,3.71
2019-01-30T13:55:10.786Z,3.49
2019-01-30T13:58:15.026Z,3.65
2019-01-30T14:01:19.429Z,3.59
2019-01-30T14:04:25.459Z,3.25
2019-01-30T14:07:29.946Z,3.16
2019-01-30T14:10:34.276Z,3.30
2019-01-30T14:13:38.520Z,3.09
2019-01-30T14:16:44.737Z,2.93
2019-01-30T14:19:49.072Z,2.77
2019-01-30T14:22:53.578Z,2.94
2019-01-30T14:25:57.850Z,2.74
2019-01-30T14:29:02.144Z,2.74
2019-01-30T14:32:06.932Z,2.76
2019-01-30T14:35:13.147Z,2.87
2019-01-30T14:38:17.526Z,2.79
2019-01-30T14:41:21.802Z,2.54
2019-01-30T14:44:26.279Z,2.52
2019-01-30T14:47:30.617Z,2.75
2019-01-30T14:50:34.854Z,2.62
2019-01-30T14:53:39.303Z,2.69
2019-01-30T14:56:43.563Z,2.47
2019-01-30T14:59:49.333Z,2.54
2019-01-30T15:02:53.621Z,2.51
2019-01-30T15:05:57.997Z,2.47
2019-01-30T15:09:02.364Z,2.47
2019-01-30T15:12:06.654Z,2.49
2019-01-30T15:15:15.307Z,2.35
2019-01-30T15:18:19.683Z,2.34
2019-01-30T15:21:24.008Z,2.46
2019-01-30T15:24:28.408Z,2.46
2019-01-30T15:27:32.692Z,2.40
2019-01-30T15:30:45.632Z,2.38
2019-01-30T15:33:49.899Z,2.49
2019-01-30T15:36:54.197Z,2.35
2019-01-30T15:39:58.513Z,2.41
2019-01-30T15:43:02.804Z,2.37
2019-01-30T15:46:07.197Z,2.44
2019-01-30T15:49:11.667Z,2.49
2019-01-30T15:52:16.071Z,2.49
2019-01-30T15:55:20.359Z,2.51
2019-01-30T15:58:24.750Z,2.47
2019-01-30T16:01:39.089Z,2.53
2019-01-30T16:04:43.553Z,2.47
2019-01-30T16:07:47.957Z,2.37
2019-01-30T16:10:52.238Z,2.41
2019-01-30T16:13:56.530Z,2.46
2019-01-30T16:17:04.586Z,2.53
2019-01-30T16:20:10.126Z,2.50
2019-01-30T16:23:14.612Z,2.40
2019-01-30T16:26:19.088Z,2.30
2019-01-30T16:29:23.387Z,2.42
2019-01-30T16:32:27.736Z,2.37
2019-01-30T16:35:32.403Z,2.45
2019-01-30T16:38:36.762Z,2.55
2019-01-30T16:41:41.063Z,2.49
2019-01-30T16:44:45.356Z,2.53
2019-01-30T16:47:51.859Z,2.42
2019-01-30T16:50:56.260Z,2.36
2019-01-30T16:54:00.837Z,2.57
2019-01-30T16:57:05.116Z,2.50
2019-01-30T17:00:13.484Z,2.55
2019-01-30T17:03:17.877Z,2.46
2019-01-30T17:06:22.197Z,2.57
2019-01-30T17:09:26.736Z,2.47
2019-01-30T17:12:31.258Z,2.47
2019-01-30T17:15:38.288Z,2.51
2019-01-30T17:18:42.672Z,2.45
2019-01-30T17:21:47.003Z,2.54
2019-01-30T17:24:53.591Z,2.39
2019-01-30T17:27:58.153Z,2.47
2019-01-30T17:31:07.476Z,2.50
2019-01-30T17:34:11.789Z,2.50
2019-01-30T17:37:16.206Z,2.35
2019-01-30T17:40:21.509Z,2.51
2019-01-30T17:43:25.822Z,2.38
2019-01-30T17:46:33.218Z,2.40
2019-01-30T17:49:42.698Z,2.46
2019-01-30T17:52:47.093Z,2.34
2019-01-30T17:55:54.116Z,2.34
2019-01-30T17:58:58.620Z,2.46
2019-01-30T18:02:04.092Z,2.38
2019-01-30T18:05:08.487Z,2.54
2019-01-30T18:08:12.785Z,2.44
2019-01-30T18:11:18.411Z,2.43
2019-01-30T18:14:22.744Z,2.32
2019-01-30T18:17:27.295Z,2.46
2019-01-30T18:20:31.601Z,2.44
2019-01-30T18:23:37.106Z,2.36
2019-01-30T18:26:41.605Z,2.27
2019-01-30T18:29:46.526Z,2.25
2019-01-30T18:32:55.571Z,2.38
2019-01-30T18:36:01.636Z,2.26
2019-01-30T18:39:09.025Z,2.31
2019-01-30T18:42:13.350Z,2.41
2019-01-30T18:45:20.775Z,2.34
2019-01-30T18:48:25.163Z,2.27
2019-01-30T18:51:29.444Z,2.40
2019-01-30T18:54:33.731Z,2.22
2019-01-30T18:57:38.054Z,2.33
2019-01-30T19:00:43.971Z,2.25
2019-01-30T19:03:49.913Z,2.29
2019-01-30T19:06:54.184Z,2.34
2019-01-30T19:09:58.600Z,2.16
2019-01-30T19:13:04.639Z,2.33
2019-01-30T19:16:10.728Z,2.38
2019-01-30T19:19:15.245Z,2.26
2019-01-30T19:22:19.540Z,2.26
2019-01-30T19:25:23.852Z,2.26
2019-01-30T19:28:28.210Z,2.21
2019-01-30T19:31:33.645Z,2.40
2019-01-30T19:34:37.938Z,2.30
2019-01-30T19:37:42.243Z,2.14
2019-01-30T19:40:47.341Z,2.22
2019-01-30T19:43:51.910Z,2.18
2019-01-30T19:46:56.221Z,2.17
2019-01-30T19:50:00.785Z,2.19
2019-01-30T19:53:05.823Z,2.18
2019-01-30T19:56:10.179Z,2.27
2019-01-30T19:59:17.612Z,2.33
2019-01-30T20:02:23.243Z,2.13
2019-01-30T20:05:27.658Z,2.17
2019-01-30T20:08:31.982Z,2.26
2019-01-30T20:11:36.407Z,2.41
2019-01-30T20:14:40.726Z,2.38
2019-01-30T20:17:45.070Z,2.25
2019-01-30T20:20:49.486Z,2.30
2019-01-30T20:23:54.160Z,2.35
2019-01-30T20:26:58.683Z,2.28
2019-01-30T20:30:03.001Z,2.32
2019-01-30T20:33:07.447Z,2.34
2019-01-30T20:36:13.948Z,2.16
2019-01-30T20:39:21.238Z,2.29
2019-01-30T20:42:25.540Z,2.33
2019-01-30T20:45:33.833Z,2.18
2019-01-30T20:48:45.624Z,2.23
2019-01-30T20:51:41.982Z,2.39
2019-01-30T20:54:46.447Z,2.22
2019-01-30T20:57:50.953Z,2.23
2019-01-30T21:01:08.162Z,2.29
2019-01-30T21:04:27.762Z,2.16
2019-01-30T21:07:52.398Z,2.35
2019-01-30T21:11:16.721Z,2.27
2019-01-30T21:14:21.818Z,2.17
2019-01-30T21:17:26.537Z,2.17
2019-01-30T21:20:31.559Z,2.22
2019-01-30T21:23:37.163Z,2.19
2019-01-30T21:26:41.462Z,2.12
2019-01-30T21:29:45.743Z,2.17
2019-01-30T21:32:50.035Z,2.01
2019-01-30T21:35:54.435Z,2.05
2019-01-30T21:38:58.736Z,2.19
2019-01-30T21:42:03.059Z,1.95
2019-01-30T21:45:08.723Z,2.02
2019-01-30T21:48:12.996Z,1.90
2019-01-30T21:51:17.263Z,1.94
2019-01-30T21:54:21.784Z,1.90
2019-01-30T21:57:26.564Z,1.93
2019-01-30T22:00:31.360Z,1.94
2019-01-30T22:03:35.738Z,1.91
2019-01-30T22:06:40.353Z,1.78
2019-01-30T22:09:44.974Z,1.82
2019-01-30T22:12:49.903Z,2.04
2019-01-30T22:15:55.285Z,2.01
2019-01-30T22:18:59.664Z,1.97
2019-01-30T22:22:03.960Z,1.89
2019-01-30T22:25:20.012Z,1.94
2019-01-30T22:28:16.422Z,2.00
2019-01-30T22:31:20.973Z,2.00
2019-01-30T22:34:25.456Z,1.85
2019-01-30T22:37:30.074Z,1.88
2019-01-30T22:40:34.368Z,1.87
2019-01-30T22:43:38.666Z,1.90
2019-01-30T22:46:44.451Z,1.68
2019-01-30T22:49:49.056Z,1.64
2019-01-30T22:52:53.746Z,1.60
2019-01-30T22:55:58.474Z,1.47
2019-01-30T22:59:02.959Z,1.40
2019-01-30T23:02:11.755Z,1.57
2019-01-30T23:05:55.773Z,1.48
2019-01-30T23:09:44.279Z,1.52
2019-01-30T23:13:24.564Z,1.48
2019-01-30T23:17:04.118Z,1.39
2019-01-30T23:20:37.730Z,1.60
2019-01-30T23:24:38.405Z,1.60
2019-01-30T23:27:49.148Z,1.47
2019-01-30T23:31:24.646Z,1.51
2019-01-30T23:35:00.364Z,1.67
2019-01-30T23:38:34.406Z,1.79
2019-01-30T23:42:06.097Z,1.66
2019-01-30T23:45:45.025Z,1.55
2019-01-30T23:49:18.354Z,1.86
2019-01-30T23:52:48.202Z,1.72
2019-01-30T23:56:48.519Z,1.71
